Time;durP1;ratioP1;P1;durP2;ratioP2;P2;SDS_P1;SDS_P2;PMS_P1;PMS_P2;Temp;Humidity;BMP_temperature;BMP_pressure;BME280_temperature;BME280_humidity;BME280_pressure;Samples;Min_cycle;Max_cycle;Signal;HPM_P1;HPM_P2
2023/12/01 00:01:19;;;;;;;41.03;17.42;;;;;;;;;;5064549;28;20440;-84
2023/12/01 00:03:46;;;;;;;41.45;18.05;;;;;;;;;;5051970;28;20024;-83
2023/12/01 00:06:12;;;;;;;47.20;18.58;;;;;;;;;;5058275;28;20559;-84
2023/12/01 00:08:38;;;;;;;43.28;17.55;;;;;;;;;;5071954;28;20027;-84
2023/12/01 00:11:04;;;;;;;40.10;16.55;;;;;;;;;;5067181;28;20051;-84
2023/12/01 00:13:30;;;;;;;42.22;17.42;;;;;;;;;;5051952;28;20476;-84
2023/12/01 00:15:56;;;;;;;39.97;16.83;;;;;;;;;;5056162;28;20019;-83
2023/12/01 00:18:23;;;;;;;41.25;17.73;;;;;;;;;;5072015;28;20043;-83
2023/12/01 00:20:49;;;;;;;42.88;18.52;;;;;;;;;;5070689;28;20013;-84
2023/12/01 00:23:15;;;;;;;41.22;17.52;;;;;;;;;;5051679;28;20071;-83
2023/12/01 00:25:41;;;;;;;41.72;17.73;;;;;;;;;;5051891;28;20389;-84
2023/12/01 00:28:07;;;;;;;43.97;18.80;;;;;;;;;;5071396;28;20107;-84
2023/12/01 00:30:33;;;;;;;51.60;18.92;;;;;;;;;;5073396;28;20045;-84
2023/12/01 00:32:59;;;;;;;46.85;18.92;;;;;;;;;;5055557;28;20047;-83
2023/12/01 00:35:25;;;;;;;47.92;19.98;;;;;;;;;;5052751;28;20040;-84
2023/12/01 00:37:51;;;;;;;49.58;20.73;;;;;;;;;;5067915;28;20373;-84
2023/12/01 00:40:17;;;;;;;52.13;21.02;;;;;;;;;;5072518;28;20008;-84
2023/12/01 00:42:43;;;;;;;50.65;21.30;;;;;;;;;;5057270;28;20021;-84
2023/12/01 00:45:09;;;;;;;52.35;21.88;;;;;;;;;;5052599;28;20304;-84
2023/12/01 00:47:35;;;;;;;52.55;20.58;;;;;;;;;;5062314;28;20025;-84
2023/12/01 00:50:02;;;;;;;47.38;19.75;;;;;;;;;;5071299;28;20491;-84
2023/12/01 00:52:28;;;;;;;48.30;20.10;;;;;;;;;;5061301;28;20029;-84
2023/12/01 00:54:54;;;;;;;50.38;19.95;;;;;;;;;;5051486;28;20023;-84
2023/12/01 00:57:22;;;;;;;45.90;19.33;;;;;;;;;;5059089;28;20365;-83
2023/12/01 00:59:48;;;;;;;42.80;18.15;;;;;;;;;;5071164;28;20025;-83
2023/12/01 01:02:14;;;;;;;42.25;18.42;;;;;;;;;;5065371;28;20009;-83
2023/12/01 01:04:41;;;;;;;42.55;18.40;;;;;;;;;;5050951;28;20017;-83
2023/12/01 01:07:07;;;;;;;41.92;18.00;;;;;;;;;;5056183;28;20028;-83
2023/12/01 01:09:33;;;;;;;43.83;18.73;;;;;;;;;;5072286;28;20021;-83
2023/12/01 01:12:01;;;;;;;45.50;19.38;;;;;;;;;;5067752;28;20055;-84
2023/12/01 01:14:27;;;;;;;42.25;19.40;;;;;;;;;;5051741;28;20569;-84
2023/12/01 01:16:53;;;;;;;43.28;19.45;;;;;;;;;;5051987;28;20480;-84
2023/12/01 01:19:19;;;;;;;44.28;19.48;;;;;;;;;;5051692;28;20021;-84
2023/12/01 01:21:45;;;;;;;43.50;19.52;;;;;;;;;;5052756;28;20512;-84
2023/12/01 01:24:11;;;;;;;46.83;19.00;;;;;;;;;;5070508;28;20016;-83
2023/12/01 01:26:38;;;;;;;44.10;18.63;;;;;;;;;;5070699;28;20020;-84
2023/12/01 01:29:04;;;;;;;42.47;18.55;;;;;;;;;;5070370;28;20023;-84
2023/12/01 01:31:30;;;;;;;44.28;18.65;;;;;;;;;;5071385;28;20095;-84
2023/12/01 01:33:56;;;;;;;41.38;18.35;;;;;;;;;;5052872;28;20029;-83
2023/12/01 01:36:22;;;;;;;46.38;18.80;;;;;;;;;;5050378;28;20009;-83
2023/12/01 01:38:48;;;;;;;42.65;18.50;;;;;;;;;;5050419;28;20124;-83
2023/12/01 01:41:14;;;;;;;41.88;18.90;;;;;;;;;;5050514;28;20112;-84
2023/12/01 01:43:40;;;;;;;40.80;18.70;;;;;;;;;;5050251;28;20064;-83
2023/12/01 01:46:07;;;;;;;38.63;18.00;;;;;;;;;;5050499;28;20032;-83
2023/12/01 01:48:34;;;;;;;38.90;18.50;;;;;;;;;;5050395;28;20020;-83
2023/12/01 01:51:04;;;;;;;38.85;17.63;;;;;;;;;;5050132;28;20043;-84
2023/12/01 01:53:30;;;;;;;40.78;19.13;;;;;;;;;;5062797;28;20063;-84
2023/12/01 01:55:58;;;;;;;35.75;16.92;;;;;;;;;;5070493;28;20017;-83
2023/12/01 01:58:24;;;;;;;33.92;16.17;;;;;;;;;;5059380;28;20009;-85
2023/12/01 02:00:50;;;;;;;37.17;16.83;;;;;;;;;;5050198;28;20013;-84
2023/12/01 02:03:18;;;;;;;37.00;17.70;;;;;;;;;;5059313;28;20016;-84
2023/12/01 02:05:47;;;;;;;36.67;16.95;;;;;;;;;;5069448;28;20048;-83
2023/12/01 02:08:20;;;;;;;38.10;17.40;;;;;;;;;;5062039;28;20017;-84
2023/12/01 02:10:46;;;;;;;38.15;17.50;;;;;;;;;;5051054;28;20020;-84
2023/12/01 02:13:14;;;;;;;39.88;17.73;;;;;;;;;;5050054;28;20186;-83
2023/12/01 02:15:41;;;;;;;39.95;18.33;;;;;;;;;;5050195;28;20120;-84
2023/12/01 02:18:19;;;;;;;40.75;17.92;;;;;;;;;;5057064;28;20040;-84
2023/12/01 02:20:45;;;;;;;40.55;18.30;;;;;;;;;;5069757;28;20480;-84
2023/12/01 02:23:11;;;;;;;41.53;17.70;;;;;;;;;;5063745;28;20020;-84
2023/12/01 02:25:37;;;;;;;43.03;17.80;;;;;;;;;;5049756;28;20009;-82
2023/12/01 02:28:03;;;;;;;41.20;17.83;;;;;;;;;;5056910;28;20335;-85
2023/12/01 02:30:29;;;;;;;42.97;18.33;;;;;;;;;;5069977;28;20044;-84
2023/12/01 02:32:55;;;;;;;43.22;17.40;;;;;;;;;;5065902;28;20044;-83
2023/12/01 02:35:21;;;;;;;41.08;17.25;;;;;;;;;;5049407;28;20029;-84
2023/12/01 02:37:47;;;;;;;39.33;16.85;;;;;;;;;;5049733;28;20067;-84
2023/12/01 02:40:17;;;;;;;39.42;16.55;;;;;;;;;;5049419;28;20039;-84
2023/12/01 02:42:46;;;;;;;38.55;17.38;;;;;;;;;;5051944;28;20017;-84
2023/12/01 02:45:12;;;;;;;36.35;16.45;;;;;;;;;;5070587;28;20058;-83
2023/12/01 02:47:38;;;;;;;38.92;16.80;;;;;;;;;;5069216;28;20051;-84
2023/12/01 02:50:05;;;;;;;40.47;17.27;;;;;;;;;;5049233;28;20052;-84
2023/12/01 02:52:31;;;;;;;39.83;17.13;;;;;;;;;;5049442;28;20013;-84
2023/12/01 02:54:57;;;;;;;42.15;17.50;;;;;;;;;;5068469;28;20035;-84
2023/12/01 02:57:23;;;;;;;45.97;17.83;;;;;;;;;;5069708;28;20005;-85
2023/12/01 02:59:49;;;;;;;41.72;17.00;;;;;;;;;;5051609;28;20073;-84
2023/12/01 03:02:15;;;;;;;43.17;17.48;;;;;;;;;;5050096;28;20468;-84
2023/12/01 03:04:41;;;;;;;44.50;17.75;;;;;;;;;;5049072;28;20013;-84
2023/12/01 03:07:07;;;;;;;42.50;16.85;;;;;;;;;;5052293;28;20016;-83
2023/12/01 03:09:33;;;;;;;42.53;17.92;;;;;;;;;;5067438;28;20491;-84
2023/12/01 03:11:59;;;;;;;41.40;18.05;;;;;;;;;;5073089;28;20017;-84
2023/12/01 03:14:25;;;;;;;42.40;16.95;;;;;;;;;;5061511;28;20033;-83
2023/12/01 03:16:51;;;;;;;47.42;18.52;;;;;;;;;;5053389;28;20020;-84
2023/12/01 03:19:17;;;;;;;47.67;18.40;;;;;;;;;;5063964;28;20025;-84
2023/12/01 03:21:43;;;;;;;46.67;18.90;;;;;;;;;;5073263;28;20071;-84
2023/12/01 03:24:09;;;;;;;47.10;19.65;;;;;;;;;;5064943;28;20048;-84
2023/12/01 03:26:36;;;;;;;44.63;18.65;;;;;;;;;;5052693;28;20381;-83
2023/12/01 03:29:02;;;;;;;46.65;18.08;;;;;;;;;;5061765;28;20028;-84
2023/12/01 03:31:28;;;;;;;46.78;18.67;;;;;;;;;;5073681;28;20051;-84
2023/12/01 03:33:54;;;;;;;43.08;17.77;;;;;;;;;;5066428;28;20057;-84
2023/12/01 03:36:21;;;;;;;53.13;19.73;;;;;;;;;;5052710;28;20085;-84
2023/12/01 03:38:48;;;;;;;50.78;20.33;;;;;;;;;;5058748;28;20483;-84
2023/12/01 03:41:15;;;;;;;51.47;19.05;;;;;;;;;;5072477;28;20020;-84
2023/12/01 03:43:41;;;;;;;49.13;19.55;;;;;;;;;;5069718;28;20463;-84
2023/12/01 03:46:07;;;;;;;54.42;19.98;;;;;;;;;;5053888;28;20483;-83
2023/12/01 03:48:33;;;;;;;54.80;21.00;;;;;;;;;;5055926;28;20053;-84
2023/12/01 03:51:00;;;;;;;56.53;20.13;;;;;;;;;;5072494;28;20102;-84
2023/12/01 03:53:26;;;;;;;53.55;21.17;;;;;;;;;;5072719;28;20368;-83
2023/12/01 03:55:52;;;;;;;54.22;21.05;;;;;;;;;;5052137;28;20052;-83
2023/12/01 03:58:18;;;;;;;58.50;20.08;;;;;;;;;;5052311;28;20036;-84
2023/12/01 04:00:44;;;;;;;56.35;21.20;;;;;;;;;;5072272;28;20095;-83
2023/12/01 04:03:10;;;;;;;55.53;20.48;;;;;;;;;;5072316;28;20035;-84
2023/12/01 04:05:37;;;;;;;54.97;21.50;;;;;;;;;;5054216;28;20473;-83
2023/12/01 04:08:03;;;;;;;58.92;21.75;;;;;;;;;;5052241;28;20457;-83
2023/12/01 04:10:30;;;;;;;58.88;21.42;;;;;;;;;;5068384;28;20024;-83
2023/12/01 04:12:56;;;;;;;61.30;22.40;;;;;;;;;;5071944;28;20017;-83
2023/12/01 04:15:24;;;;;;;61.15;22.38;;;;;;;;;;5056846;28;20068;-83
2023/12/01 04:17:50;;;;;;;64.35;22.20;;;;;;;;;;5051162;28;20017;-83
2023/12/01 04:20:24;;;;;;;60.80;21.05;;;;;;;;;;5065172;28;20031;-83
2023/12/01 04:22:53;;;;;;;57.90;21.48;;;;;;;;;;5072965;28;20024;-83
2023/12/01 04:25:19;;;;;;;60.10;21.80;;;;;;;;;;5058076;28;20400;-82
2023/12/01 04:27:46;;;;;;;62.42;23.00;;;;;;;;;;5051797;28;20029;-82
2023/12/01 04:30:17;;;;;;;65.38;23.63;;;;;;;;;;5063514;28;20492;-82
2023/12/01 04:32:53;;;;;;;65.03;23.48;;;;;;;;;;5071063;28;20036;-83
2023/12/01 04:35:19;;;;;;;66.85;22.80;;;;;;;;;;5060350;28;20075;-83
2023/12/01 04:37:46;;;;;;;67.63;23.77;;;;;;;;;;5051575;28;20151;-81
2023/12/01 04:40:15;;;;;;;62.72;22.15;;;;;;;;;;5063126;28;20353;-82
2023/12/01 04:42:45;;;;;;;64.25;22.98;;;;;;;;;;5071653;28;20437;-83
2023/12/01 04:45:12;;;;;;;68.40;22.35;;;;;;;;;;5061206;28;20023;-82
2023/12/01 04:47:39;;;;;;;67.40;22.30;;;;;;;;;;5052082;28;20016;-81
2023/12/01 04:50:12;;;;;;;71.47;23.13;;;;;;;;;;5060294;28;20476;-82
2023/12/01 04:52:38;;;;;;;68.07;21.63;;;;;;;;;;5071387;28;20017;-81
2023/12/01 04:55:04;;;;;;;69.97;23.20;;;;;;;;;;5063337;28;20025;-77
2023/12/01 04:57:30;;;;;;;68.28;23.30;;;;;;;;;;5050607;28;20139;-81
2023/12/01 04:59:56;;;;;;;73.53;25.02;;;;;;;;;;5057774;28;20020;-82
2023/12/01 05:02:24;;;;;;;70.55;24.15;;;;;;;;;;5072075;28;20016;-82
2023/12/01 05:04:50;;;;;;;72.22;25.10;;;;;;;;;;5065265;28;20600;-82
2023/12/01 05:07:16;;;;;;;74.57;26.48;;;;;;;;;;5050322;28;20021;-82
2023/12/01 05:09:42;;;;;;;77.40;24.45;;;;;;;;;;5053047;28;20496;-82
2023/12/01 05:12:08;;;;;;;80.32;25.25;;;;;;;;;;5061661;28;20070;-82
2023/12/01 05:14:34;;;;;;;79.72;25.33;;;;;;;;;;5064702;28;20495;-82
2023/12/01 05:17:00;;;;;;;82.28;26.88;;;;;;;;;;5060335;28;20014;-82
2023/12/01 05:19:27;;;;;;;79.63;26.35;;;;;;;;;;5059928;28;20020;-82
2023/12/01 05:21:53;;;;;;;76.43;26.50;;;;;;;;;;5062805;28;20018;-82
2023/12/01 05:24:19;;;;;;;76.47;25.35;;;;;;;;;;5058501;28;20021;-82
2023/12/01 05:26:45;;;;;;;90.13;26.92;;;;;;;;;;5061251;28;20146;-82
2023/12/01 05:29:13;;;;;;;71.68;25.50;;;;;;;;;;5060280;28;20021;-82
2023/12/01 05:31:39;;;;;;;81.22;25.35;;;;;;;;;;5058440;28;20566;-82
2023/12/01 05:34:05;;;;;;;72.03;25.67;;;;;;;;;;5061290;28;20146;-81
2023/12/01 05:36:32;;;;;;;75.13;25.70;;;;;;;;;;5061327;28;20041;-82
2023/12/01 05:38:58;;;;;;;76.20;24.85;;;;;;;;;;5050924;28;20017;-82
2023/12/01 05:41:24;;;;;;;83.93;25.65;;;;;;;;;;5061969;28;20092;-82
2023/12/01 05:43:50;;;;;;;77.43;26.70;;;;;;;;;;5069928;28;20116;-82
2023/12/01 05:46:16;;;;;;;82.15;26.15;;;;;;;;;;5070964;28;20028;-83
2023/12/01 05:48:42;;;;;;;71.82;24.40;;;;;;;;;;5069375;28;20508;-82
2023/12/01 05:51:08;;;;;;;74.32;24.92;;;;;;;;;;5056448;28;20039;-80
2023/12/01 05:53:34;;;;;;;85.75;28.05;;;;;;;;;;5049808;28;20029;-81
2023/12/01 05:56:03;;;;;;;86.03;26.92;;;;;;;;;;5059720;28;20031;-81
2023/12/01 05:58:29;;;;;;;76.60;25.70;;;;;;;;;;5068724;28;20020;-81
2023/12/01 06:00:56;;;;;;;79.22;26.40;;;;;;;;;;5059287;28;20032;-81
2023/12/01 06:03:22;;;;;;;70.55;25.55;;;;;;;;;;5050183;28;20020;-80
2023/12/01 06:05:48;;;;;;;82.18;28.30;;;;;;;;;;5057046;28;20384;-80
2023/12/01 06:08:15;;;;;;;76.18;25.38;;;;;;;;;;5069007;28;20290;-81
2023/12/01 06:10:41;;;;;;;77.88;25.35;;;;;;;;;;5063215;28;20025;-80
2023/12/01 06:13:07;;;;;;;79.88;27.10;;;;;;;;;;5050265;28;20028;-83
2023/12/01 06:15:33;;;;;;;80.25;26.13;;;;;;;;;;5055439;28;20019;-81
2023/12/01 06:18:02;;;;;;;77.85;26.83;;;;;;;;;;5068362;28;20020;-76
2023/12/01 06:20:30;;;;;;;80.70;26.63;;;;;;;;;;5064469;28;20021;-81
2023/12/01 06:23:00;;;;;;;84.30;27.40;;;;;;;;;;5048710;28;20017;-82
2023/12/01 06:25:27;;;;;;;74.55;26.40;;;;;;;;;;5051591;28;20031;-81
2023/12/01 06:27:53;;;;;;;78.05;26.98;;;;;;;;;;5069829;28;20142;-77
2023/12/01 06:30:19;;;;;;;78.70;27.33;;;;;;;;;;5055836;28;20021;-76
2023/12/01 06:32:46;;;;;;;77.38;26.50;;;;;;;;;;5048607;28;20037;-77
2023/12/01 06:35:14;;;;;;;82.45;24.13;;;;;;;;;;5047377;28;20031;-77
2023/12/01 06:37:40;;;;;;;85.93;29.15;;;;;;;;;;5048694;28;20543;-76
2023/12/01 06:40:15;;;;;;;87.68;30.90;;;;;;;;;;5046900;28;20656;-77
2023/12/01 06:42:54;;;;;;;94.15;32.38;;;;;;;;;;5053999;28;20372;-77
2023/12/01 06:45:21;;;;;;;87.80;31.15;;;;;;;;;;5075163;28;20044;-77
2023/12/01 06:47:48;;;;;;;92.60;30.02;;;;;;;;;;5049404;28;20028;-77
2023/12/01 06:50:15;;;;;;;90.32;32.03;;;;;;;;;;5047152;28;20005;-76
2023/12/01 06:52:42;;;;;;;97.18;33.35;;;;;;;;;;5047088;28;20021;-77
2023/12/01 06:55:09;;;;;;;99.50;33.50;;;;;;;;;;5047846;28;20025;-77
2023/12/01 06:57:39;;;;;;;86.20;29.63;;;;;;;;;;5049522;28;20075;-77
2023/12/01 07:00:09;;;;;;;89.05;28.08;;;;;;;;;;5053422;28;20009;-77
2023/12/01 07:02:37;;;;;;;85.38;23.60;;;;;;;;;;5059425;28;20486;-77
2023/12/01 07:05:03;;;;;;;81.28;25.77;;;;;;;;;;5046679;28;20409;-76
2023/12/01 07:07:30;;;;;;;81.00;24.60;;;;;;;;;;5053696;28;20532;-77
2023/12/01 07:09:58;;;;;;;71.97;22.77;;;;;;;;;;5051053;28;20461;-77
2023/12/01 07:12:24;;;;;;;74.00;21.95;;;;;;;;;;5058126;28;20021;-76
2023/12/01 07:14:50;;;;;;;67.13;21.38;;;;;;;;;;5056860;28;20035;-77
2023/12/01 07:17:16;;;;;;;55.83;20.70;;;;;;;;;;5055551;28;20025;-76
2023/12/01 07:19:42;;;;;;;62.22;21.52;;;;;;;;;;5047112;28;20013;-76
2023/12/01 07:22:10;;;;;;;75.90;24.05;;;;;;;;;;5057911;28;20024;-77
2023/12/01 07:24:36;;;;;;;82.55;25.42;;;;;;;;;;5068721;28;20542;-77
2023/12/01 07:27:02;;;;;;;124.75;27.20;;;;;;;;;;5058514;28;20013;-77
2023/12/01 07:29:28;;;;;;;84.28;26.65;;;;;;;;;;5067435;28;20524;-77
2023/12/01 07:31:54;;;;;;;87.47;27.10;;;;;;;;;;5067311;28;20040;-77
2023/12/01 07:34:20;;;;;;;97.40;27.98;;;;;;;;;;5062767;28;20031;-77
2023/12/01 07:36:47;;;;;;;88.28;26.08;;;;;;;;;;5060550;28;20100;-77
2023/12/01 07:39:13;;;;;;;91.18;28.42;;;;;;;;;;5057965;28;20022;-77
2023/12/01 07:41:38;;;;;;;99.68;29.13;;;;;;;;;;5053991;28;20028;-77
2023/12/01 07:44:04;;;;;;;88.35;29.70;;;;;;;;;;5051278;28;20040;-77
2023/12/01 07:46:32;;;;;;;133.65;39.13;;;;;;;;;;5059819;28;20024;-77
2023/12/01 07:48:59;;;;;;;106.63;38.47;;;;;;;;;;5052355;28;20473;-78
2023/12/01 07:51:25;;;;;;;120.75;42.25;;;;;;;;;;5045675;28;20032;-78
2023/12/01 07:53:52;;;;;;;87.13;24.65;;;;;;;;;;5050432;28;20163;-78
2023/12/01 07:56:21;;;;;;;98.30;32.35;;;;;;;;;;5050525;28;20009;-78
2023/12/01 07:58:48;;;;;;;101.13;38.15;;;;;;;;;;5075222;28;20025;-77
2023/12/01 08:01:14;;;;;;;92.43;32.78;;;;;;;;;;5051463;28;20013;-77
2023/12/01 08:03:41;;;;;;;87.78;29.35;;;;;;;;;;5050105;28;20500;-77
2023/12/01 08:06:07;;;;;;;90.88;29.23;;;;;;;;;;5050500;28;20048;-78
2023/12/01 08:08:33;;;;;;;77.82;26.60;;;;;;;;;;5066041;28;20021;-76
2023/12/01 08:11:00;;;;;;;83.20;28.67;;;;;;;;;;5072051;28;20031;-78
2023/12/01 08:13:26;;;;;;;82.22;29.80;;;;;;;;;;5056727;28;20468;-77
2023/12/01 08:15:53;;;;;;;83.38;28.73;;;;;;;;;;5052122;28;20519;-78
2023/12/01 08:18:19;;;;;;;78.53;27.85;;;;;;;;;;5064273;28;20012;-78
2023/12/01 08:20:45;;;;;;;79.93;27.77;;;;;;;;;;5072510;28;20100;-86
2023/12/01 08:23:11;;;;;;;86.05;28.50;;;;;;;;;;5065316;28;20054;-83
2023/12/01 08:25:37;;;;;;;134.43;39.30;;;;;;;;;;5052341;28;20055;-83
2023/12/01 08:28:03;;;;;;;107.78;34.33;;;;;;;;;;5059363;28;20025;-88
2023/12/01 08:30:29;;;;;;;89.35;29.55;;;;;;;;;;5070925;28;20017;-82
2023/12/01 08:32:56;;;;;;;96.28;30.25;;;;;;;;;;5065465;28;20045;-82
2023/12/01 08:35:22;;;;;;;112.05;28.25;;;;;;;;;;5051051;28;20052;-83
2023/12/01 08:37:48;;;;;;;123.95;32.83;;;;;;;;;;5051187;28;20330;-83
2023/12/01 08:40:14;;;;;;;100.95;31.83;;;;;;;;;;5051699;28;20385;-84
2023/12/01 08:42:41;;;;;;;102.25;34.15;;;;;;;;;;5053938;28;20473;-85
2023/12/01 08:45:07;;;;;;;152.27;33.13;;;;;;;;;;5056354;28;20021;-83
2023/12/01 08:47:33;;;;;;;77.47;20.98;;;;;;;;;;5049863;28;20064;-83
2023/12/01 08:49:59;;;;;;;120.18;30.45;;;;;;;;;;5043951;28;20070;-83
2023/12/01 08:52:26;;;;;;;86.40;33.80;;;;;;;;;;5054649;28;20013;-83
2023/12/01 08:54:52;;;;;;;82.38;37.92;;;;;;;;;;5057106;28;20255;-82
2023/12/01 08:57:18;;;;;;;58.60;23.15;;;;;;;;;;5050740;28;20021;-83
2023/12/01 08:59:44;;;;;;;55.88;21.08;;;;;;;;;;5054098;28;20024;-83
2023/12/01 09:02:10;;;;;;;51.75;19.88;;;;;;;;;;5051062;28;20043;-83
2023/12/01 09:04:36;;;;;;;72.07;25.13;;;;;;;;;;5053522;28;20013;-83
2023/12/01 09:07:04;;;;;;;57.72;22.00;;;;;;;;;;5053138;28;20021;-83
2023/12/01 09:09:31;;;;;;;100.60;23.48;;;;;;;;;;5035698;28;20103;-83
2023/12/01 09:11:57;;;;;;;75.35;22.63;;;;;;;;;;5059729;28;20489;-82
2023/12/01 09:14:23;;;;;;;66.60;24.65;;;;;;;;;;5059679;28;20056;-83
2023/12/01 09:16:49;;;;;;;60.58;24.33;;;;;;;;;;5038455;28;20123;-83
2023/12/01 09:19:15;;;;;;;49.67;19.08;;;;;;;;;;5083346;28;20013;-83
2023/12/01 09:21:41;;;;;;;60.60;25.25;;;;;;;;;;5049865;28;20017;-84
2023/12/01 09:24:07;;;;;;;69.15;27.42;;;;;;;;;;5052742;28;20017;-84
2023/12/01 09:26:33;;;;;;;65.82;25.58;;;;;;;;;;5049541;28;20037;-83
2023/12/01 09:28:59;;;;;;;61.60;24.70;;;;;;;;;;5058601;28;20503;-84
2023/12/01 09:31:26;;;;;;;66.00;26.25;;;;;;;;;;5060709;28;20040;-84
2023/12/01 09:33:52;;;;;;;71.13;26.50;;;;;;;;;;5050597;28;20045;-83
2023/12/01 09:36:18;;;;;;;64.95;25.27;;;;;;;;;;5049177;28;20380;-84
2023/12/01 09:38:44;;;;;;;65.45;25.88;;;;;;;;;;5047965;28;20366;-84
2023/12/01 09:41:14;;;;;;;65.45;25.52;;;;;;;;;;5037657;28;20053;-83
2023/12/01 09:43:43;;;;;;;72.25;30.42;;;;;;;;;;5052201;28;20090;-85
2023/12/01 09:46:09;;;;;;;64.05;25.20;;;;;;;;;;5051511;28;20054;-83
2023/12/01 09:48:36;;;;;;;65.18;28.58;;;;;;;;;;5045101;28;20074;-84
2023/12/01 09:51:04;;;;;;;57.53;25.25;;;;;;;;;;5059650;28;20024;-84
2023/12/01 09:53:30;;;;;;;54.75;24.88;;;;;;;;;;5062451;28;20079;-85
2023/12/01 09:55:56;;;;;;;59.03;23.67;;;;;;;;;;5043217;28;20029;-83
2023/12/01 09:58:23;;;;;;;59.78;25.02;;;;;;;;;;5046757;28;20426;-85
2023/12/01 10:00:49;;;;;;;61.97;25.70;;;;;;;;;;5053038;28;20017;-84
2023/12/01 10:03:15;;;;;;;57.47;26.10;;;;;;;;;;5049220;28;20278;-84
2023/12/01 10:05:43;;;;;;;59.40;25.55;;;;;;;;;;5052571;28;20233;-84
2023/12/01 10:08:09;;;;;;;56.65;23.40;;;;;;;;;;5049989;28;20029;-84
2023/12/01 10:10:35;;;;;;;57.83;23.65;;;;;;;;;;5048870;28;20021;-85
2023/12/01 10:13:04;;;;;;;56.35;23.45;;;;;;;;;;5047749;28;20040;-84
2023/12/01 10:15:31;;;;;;;61.50;24.70;;;;;;;;;;5044746;28;20294;-84
2023/12/01 10:18:11;;;;;;;61.55;24.23;;;;;;;;;;5079095;28;20063;-84
2023/12/01 10:20:39;;;;;;;59.97;25.25;;;;;;;;;;5061102;28;20139;-84
2023/12/01 10:23:18;;;;;;;57.60;24.85;;;;;;;;;;5047582;28;20040;-85
2023/12/01 10:25:48;;;;;;;57.00;24.67;;;;;;;;;;5058052;28;20063;-84
2023/12/01 10:28:15;;;;;;;55.95;24.77;;;;;;;;;;5039288;28;20101;-85
2023/12/01 10:30:57;;;;;;;53.10;23.33;;;;;;;;;;5056959;28;20385;-85
2023/12/01 10:33:28;;;;;;;56.95;24.38;;;;;;;;;;5048337;28;20356;-85
2023/12/01 10:36:05;;;;;;;56.88;24.35;;;;;;;;;;5053860;28;20106;-84
2023/12/01 10:38:33;;;;;;;52.28;22.60;;;;;;;;;;5048065;28;20100;-85
2023/12/01 10:40:59;;;;;;;51.50;23.00;;;;;;;;;;5049458;28;20017;-85
2023/12/01 10:43:27;;;;;;;54.08;23.95;;;;;;;;;;5034855;28;20014;-85
2023/12/01 10:45:53;;;;;;;54.97;23.20;;;;;;;;;;5050288;28;20048;-85
2023/12/01 10:48:20;;;;;;;52.83;21.70;;;;;;;;;;5043762;28;20018;-85
2023/12/01 10:50:47;;;;;;;52.30;22.05;;;;;;;;;;5049085;28;20024;-84
2023/12/01 10:53:15;;;;;;;55.65;23.42;;;;;;;;;;5047937;28;20017;-85
2023/12/01 10:55:45;;;;;;;49.50;22.60;;;;;;;;;;5051669;28;20032;-84
2023/12/01 10:58:12;;;;;;;48.83;23.17;;;;;;;;;;5049090;28;20410;-84
2023/12/01 11:00:38;;;;;;;49.72;22.05;;;;;;;;;;5058604;28;20469;-84
2023/12/01 11:03:08;;;;;;;48.72;22.77;;;;;;;;;;5047732;28;20032;-83
2023/12/01 11:05:36;;;;;;;52.00;21.60;;;;;;;;;;5041178;28;20021;-84
2023/12/01 11:08:08;;;;;;;49.90;21.85;;;;;;;;;;5045394;28;20017;-84
2023/12/01 11:10:54;;;;;;;43.85;20.38;;;;;;;;;;5036146;28;20018;-84
2023/12/01 11:13:40;;;;;;;45.08;21.48;;;;;;;;;;5035262;28;20025;-84
2023/12/01 11:16:07;;;;;;;49.60;21.10;;;;;;;;;;5039975;28;20040;-84
2023/12/01 11:18:33;;;;;;;44.00;21.23;;;;;;;;;;5044063;28;20010;-84
2023/12/01 11:20:59;;;;;;;41.35;20.27;;;;;;;;;;5044036;28;20024;-80
2023/12/01 11:23:25;;;;;;;41.15;20.30;;;;;;;;;;5031511;28;20017;-80
2023/12/01 11:25:56;;;;;;;39.08;19.55;;;;;;;;;;5033418;28;20029;-80
2023/12/01 11:28:42;;;;;;;40.60;20.48;;;;;;;;;;5034295;28;20006;-80
2023/12/01 11:31:10;;;;;;;41.65;19.83;;;;;;;;;;5076904;28;20283;-81
2023/12/01 11:33:40;;;;;;;41.83;20.45;;;;;;;;;;5038369;28;20412;-80
2023/12/01 11:36:23;;;;;;;42.35;19.65;;;;;;;;;;5046350;28;20021;-80
2023/12/01 11:39:27;;;;;;;45.95;20.92;;;;;;;;;;5041667;28;20091;-80
2023/12/01 11:42:02;;;;;;;40.58;19.17;;;;;;;;;;5036777;28;20104;-81
2023/12/01 11:44:35;;;;;;;40.97;19.90;;;;;;;;;;5051718;28;20017;-81
2023/12/01 11:47:04;;;;;;;42.33;20.40;;;;;;;;;;5055092;28;20397;-81
2023/12/01 11:49:31;;;;;;;44.05;21.15;;;;;;;;;;5038088;28;20444;-81
2023/12/01 11:52:01;;;;;;;42.03;20.85;;;;;;;;;;5042202;28;20435;-81
2023/12/01 11:54:27;;;;;;;42.13;20.90;;;;;;;;;;5047521;28;20025;-81
2023/12/01 11:56:55;;;;;;;45.30;21.70;;;;;;;;;;5055347;28;20070;-81
2023/12/01 11:59:22;;;;;;;43.70;20.60;;;;;;;;;;5043850;28;20041;-81
2023/12/01 12:01:48;;;;;;;40.55;20.13;;;;;;;;;;5048495;28;20071;-81
2023/12/01 12:04:18;;;;;;;41.53;19.85;;;;;;;;;;5051204;28;20086;-84
2023/12/01 12:06:45;;;;;;;39.47;20.77;;;;;;;;;;5052125;28;20401;-82
2023/12/01 12:09:17;;;;;;;41.40;21.30;;;;;;;;;;5045521;28;20530;-84
2023/12/01 12:11:43;;;;;;;36.88;20.55;;;;;;;;;;5049677;28;20025;-81
2023/12/01 12:14:09;;;;;;;39.22;19.73;;;;;;;;;;5046032;28;20333;-82
2023/12/01 12:16:35;;;;;;;42.53;22.02;;;;;;;;;;5045408;28;20596;-82
2023/12/01 12:19:02;;;;;;;39.97;20.15;;;;;;;;;;5049703;28;20020;-83
2023/12/01 12:21:28;;;;;;;39.42;20.00;;;;;;;;;;5053433;28;20017;-80
2023/12/01 12:23:55;;;;;;;37.90;19.75;;;;;;;;;;5048952;28;20036;-80
2023/12/01 12:26:24;;;;;;;36.17;19.05;;;;;;;;;;5043961;28;20043;-80
2023/12/01 12:28:56;;;;;;;40.67;19.13;;;;;;;;;;5053122;28;20013;-81
2023/12/01 12:31:25;;;;;;;39.45;19.38;;;;;;;;;;5044399;28;20534;-80
2023/12/01 12:33:51;;;;;;;37.72;20.70;;;;;;;;;;5048325;28;20049;-81
2023/12/01 12:36:18;;;;;;;36.25;19.55;;;;;;;;;;5044338;28;20494;-81
2023/12/01 12:38:47;;;;;;;36.90;20.08;;;;;;;;;;5043369;28;20453;-81
2023/12/01 12:41:25;;;;;;;38.80;19.67;;;;;;;;;;5051168;28;20083;-81
2023/12/01 12:43:55;;;;;;;35.75;19.20;;;;;;;;;;5051628;28;20013;-82
2023/12/01 12:46:21;;;;;;;35.38;19.30;;;;;;;;;;5044676;28;20028;-81
2023/12/01 12:48:48;;;;;;;37.55;19.90;;;;;;;;;;5052486;28;20392;-82
2023/12/01 12:51:15;;;;;;;37.95;19.23;;;;;;;;;;5049344;28;20056;-82
2023/12/01 12:53:42;;;;;;;35.15;18.75;;;;;;;;;;5055379;28;20025;-82
2023/12/01 12:56:15;;;;;;;33.40;18.13;;;;;;;;;;5035982;28;20048;-81
2023/12/01 12:58:42;;;;;;;36.65;18.90;;;;;;;;;;5042748;28;20049;-81
2023/12/01 13:01:09;;;;;;;36.53;19.25;;;;;;;;;;5049128;28;20013;-81
2023/12/01 13:03:35;;;;;;;36.38;19.38;;;;;;;;;;5045888;28;20466;-81
2023/12/01 13:06:01;;;;;;;35.78;19.00;;;;;;;;;;5047922;28;20027;-80
2023/12/01 13:08:27;;;;;;;36.38;19.60;;;;;;;;;;5039380;28;20096;-80
2023/12/01 13:10:53;;;;;;;36.40;18.95;;;;;;;;;;5040293;28;20107;-84
2023/12/01 13:13:20;;;;;;;36.05;19.52;;;;;;;;;;5052397;28;20032;-80
2023/12/01 13:15:46;;;;;;;34.58;18.63;;;;;;;;;;5045452;28;20649;-80
2023/12/01 13:18:12;;;;;;;37.95;20.02;;;;;;;;;;5049641;28;20032;-80
2023/12/01 13:20:38;;;;;;;36.65;19.67;;;;;;;;;;5045598;28;20020;-80
2023/12/01 13:23:04;;;;;;;35.92;20.02;;;;;;;;;;5053384;28;20504;-80
2023/12/01 13:25:31;;;;;;;34.60;18.52;;;;;;;;;;5050378;28;20022;-80
2023/12/01 13:27:57;;;;;;;37.05;18.98;;;;;;;;;;5049916;28;20033;-82
2023/12/01 13:30:23;;;;;;;36.85;19.63;;;;;;;;;;5049809;28;20423;-81
2023/12/01 13:32:49;;;;;;;39.50;21.13;;;;;;;;;;5052621;28;20059;-82
2023/12/01 13:35:16;;;;;;;41.35;21.05;;;;;;;;;;5049560;28;20079;-82
2023/12/01 13:37:42;;;;;;;39.70;20.45;;;;;;;;;;5042662;28;20029;-81
2023/12/01 13:40:09;;;;;;;42.22;22.25;;;;;;;;;;5049601;28;20534;-81
2023/12/01 13:42:36;;;;;;;40.92;21.30;;;;;;;;;;5063562;28;20488;-81
2023/12/01 13:45:08;;;;;;;40.42;20.95;;;;;;;;;;5050096;28;20063;-82
2023/12/01 13:47:37;;;;;;;40.78;20.58;;;;;;;;;;5049608;28;20032;-81
2023/12/01 13:50:04;;;;;;;40.60;20.05;;;;;;;;;;5043232;28;20024;-80
2023/12/01 13:52:30;;;;;;;40.60;20.90;;;;;;;;;;5051419;28;20032;-81
2023/12/01 13:54:59;;;;;;;40.10;19.90;;;;;;;;;;5048745;28;20029;-81
2023/12/01 13:57:25;;;;;;;44.33;21.07;;;;;;;;;;5050700;28;20045;-81
2023/12/01 13:59:51;;;;;;;38.65;19.40;;;;;;;;;;5036068;28;20068;-81
2023/12/01 14:02:18;;;;;;;40.72;20.20;;;;;;;;;;5037979;28;20056;-81
2023/12/01 14:04:45;;;;;;;40.70;19.70;;;;;;;;;;5045699;28;20033;-81
2023/12/01 14:07:11;;;;;;;38.53;20.20;;;;;;;;;;5047402;28;20111;-81
2023/12/01 14:09:38;;;;;;;39.40;20.20;;;;;;;;;;5057074;28;20447;-82
2023/12/01 14:12:04;;;;;;;38.72;19.88;;;;;;;;;;5050003;28;20040;-81
2023/12/01 14:14:31;;;;;;;40.70;20.83;;;;;;;;;;5051637;28;20064;-81
2023/12/01 14:16:57;;;;;;;42.95;20.90;;;;;;;;;;5048621;28;20040;-81